sensor_id;sensor_type;location;lat;lon;timestamp;P1;durP1;ratioP1;P2;durP2;ratioP2
78549;SDS011;68091;52.130;5.570;2023-02-28T00:01:09;8.07;;;4.05;;
78549;SDS011;68091;52.130;5.570;2023-02-28T00:03:34;9.90;;;3.70;;
78549;SDS011;68091;52.130;5.570;2023-02-28T00:06:02;8.90;;;3.80;;
78549;SDS011;68091;52.130;5.570;2023-02-28T00:08:29;7.50;;;3.88;;
78549;SDS011;68091;52.130;5.570;2023-02-28T00:10:54;6.20;;;3.55;;
78549;SDS011;68091;52.130;5.570;2023-02-28T00:13:20;8.05;;;3.92;;
78549;SDS011;68091;52.130;5.570;2023-02-28T00:15:46;10.43;;;4.22;;
78549;SDS011;68091;52.130;5.570;2023-02-28T00:18:12;13.50;;;3.83;;
78549;SDS011;68091;52.130;5.570;2023-02-28T00:20:38;7.25;;;4.00;;
78549;SDS011;68091;52.130;5.570;2023-02-28T00:23:04;10.43;;;4.53;;
78549;SDS011;68091;52.130;5.570;2023-02-28T00:25:30;6.47;;;3.45;;
78549;SDS011;68091;52.130;5.570;2023-02-28T00:27:56;10.00;;;3.70;;
78549;SDS011;68091;52.130;5.570;2023-02-28T00:30:22;9.52;;;4.30;;
78549;SDS011;68091;52.130;5.570;2023-02-28T00:32:49;8.27;;;3.70;;
78549;SDS011;68091;52.130;5.570;2023-02-28T00:35:15;8.75;;;3.20;;
78549;SDS011;68091;52.130;5.570;2023-02-28T00:37:41;8.63;;;3.67;;
78549;SDS011;68091;52.130;5.570;2023-02-28T00:40:07;6.85;;;3.50;;
78549;SDS011;68091;52.130;5.570;2023-02-28T00:42:34;8.60;;;3.58;;
78549;SDS011;68091;52.130;5.570;2023-02-28T00:45:01;7.47;;;3.60;;
78549;SDS011;68091;52.130;5.570;2023-02-28T00:47:29;6.80;;;3.95;;
78549;SDS011;68091;52.130;5.570;2023-02-28T00:49:55;7.65;;;3.55;;
78549;SDS011;68091;52.130;5.570;2023-02-28T00:52:20;6.57;;;3.28;;
78549;SDS011;68091;52.130;5.570;2023-02-28T00:54:46;10.18;;;3.80;;
78549;SDS011;68091;52.130;5.570;2023-02-28T00:57:12;9.10;;;3.53;;
78549;SDS011;68091;52.130;5.570;2023-02-28T00:59:38;8.00;;;3.70;;
78549;SDS011;68091;52.130;5.570;2023-02-28T01:02:04;10.57;;;4.05;;
78549;SDS011;68091;52.130;5.570;2023-02-28T01:04:29;9.40;;;3.78;;
78549;SDS011;68091;52.130;5.570;2023-02-28T01:06:55;5.97;;;3.40;;
78549;SDS011;68091;52.130;5.570;2023-02-28T01:09:21;9.45;;;3.53;;
78549;SDS011;68091;52.130;5.570;2023-02-28T01:11:47;8.82;;;3.40;;
78549;SDS011;68091;52.130;5.570;2023-02-28T01:14:13;9.02;;;3.40;;
78549;SDS011;68091;52.130;5.570;2023-02-28T01:16:41;6.25;;;3.42;;
78549;SDS011;68091;52.130;5.570;2023-02-28T01:19:06;9.15;;;3.83;;
78549;SDS011;68091;52.130;5.570;2023-02-28T01:21:33;5.95;;;3.70;;
78549;SDS011;68091;52.130;5.570;2023-02-28T01:24:00;8.50;;;3.90;;
78549;SDS011;68091;52.130;5.570;2023-02-28T01:26:26;10.27;;;4.05;;
78549;SDS011;68091;52.130;5.570;2023-02-28T01:28:52;8.55;;;3.90;;
78549;SDS011;68091;52.130;5.570;2023-02-28T01:31:18;14.88;;;3.80;;
78549;SDS011;68091;52.130;5.570;2023-02-28T01:33:46;6.88;;;3.28;;
78549;SDS011;68091;52.130;5.570;2023-02-28T01:36:13;11.85;;;4.22;;
78549;SDS011;68091;52.130;5.570;2023-02-28T01:38:41;9.95;;;3.50;;
78549;SDS011;68091;52.130;5.570;2023-02-28T01:41:08;12.95;;;3.97;;
78549;SDS011;68091;52.130;5.570;2023-02-28T01:44:07;8.65;;;3.70;;
78549;SDS011;68091;52.130;5.570;2023-02-28T01:46:52;8.63;;;3.78;;
78549;SDS011;68091;52.130;5.570;2023-02-28T01:49:21;9.18;;;4.53;;
78549;SDS011;68091;52.130;5.570;2023-02-28T01:51:50;8.60;;;3.90;;
78549;SDS011;68091;52.130;5.570;2023-02-28T01:54:21;5.82;;;3.65;;
78549;SDS011;68091;52.130;5.570;2023-02-28T01:56:56;10.00;;;3.83;;
78549;SDS011;68091;52.130;5.570;2023-02-28T01:59:37;7.85;;;3.78;;
78549;SDS011;68091;52.130;5.570;2023-02-28T02:02:13;8.95;;;3.72;;
78549;SDS011;68091;52.130;5.570;2023-02-28T02:04:43;9.48;;;3.92;;
78549;SDS011;68091;52.130;5.570;2023-02-28T02:07:16;12.68;;;4.40;;
78549;SDS011;68091;52.130;5.570;2023-02-28T02:09:45;7.43;;;4.05;;
78549;SDS011;68091;52.130;5.570;2023-02-28T02:17:48;6.78;;;3.85;;
78549;SDS011;68091;52.130;5.570;2023-02-28T02:20:32;10.93;;;3.72;;
78549;SDS011;68091;52.130;5.570;2023-02-28T02:23:25;5.43;;;3.83;;
78549;SDS011;68091;52.130;5.570;2023-02-28T02:28:40;14.25;;;4.28;;
78549;SDS011;68091;52.130;5.570;2023-02-28T02:37:06;7.68;;;4.15;;
78549;SDS011;68091;52.130;5.570;2023-02-28T02:42:28;7.97;;;3.90;;
78549;SDS011;68091;52.130;5.570;2023-02-28T02:45:20;10.27;;;3.85;;
78549;SDS011;68091;52.130;5.570;2023-02-28T02:47:53;9.95;;;3.75;;
78549;SDS011;68091;52.130;5.570;2023-02-28T02:50:22;8.15;;;4.28;;
78549;SDS011;68091;52.130;5.570;2023-02-28T02:52:55;7.45;;;4.55;;
78549;SDS011;68091;52.130;5.570;2023-02-28T02:55:25;12.13;;;4.30;;
78549;SDS011;68091;52.130;5.570;2023-02-28T02:57:52;8.43;;;4.15;;
78549;SDS011;68091;52.130;5.570;2023-02-28T03:00:36;9.38;;;4.68;;
78549;SDS011;68091;52.130;5.570;2023-02-28T03:03:08;11.10;;;4.55;;
78549;SDS011;68091;52.130;5.570;2023-02-28T03:05:39;9.30;;;4.63;;
78549;SDS011;68091;52.130;5.570;2023-02-28T03:08:09;7.10;;;4.10;;
78549;SDS011;68091;52.130;5.570;2023-02-28T03:10:40;8.50;;;4.03;;
78549;SDS011;68091;52.130;5.570;2023-02-28T03:16:05;6.68;;;4.18;;
78549;SDS011;68091;52.130;5.570;2023-02-28T03:18:51;10.43;;;4.30;;
78549;SDS011;68091;52.130;5.570;2023-02-28T03:23:51;9.05;;;4.25;;
78549;SDS011;68091;52.130;5.570;2023-02-28T03:26:26;8.57;;;4.15;;
78549;SDS011;68091;52.130;5.570;2023-02-28T03:31:48;10.60;;;5.22;;
78549;SDS011;68091;52.130;5.570;2023-02-28T03:34:22;7.47;;;4.55;;
78549;SDS011;68091;52.130;5.570;2023-02-28T03:36:55;9.27;;;4.68;;
78549;SDS011;68091;52.130;5.570;2023-02-28T03:39:28;8.18;;;4.30;;
78549;SDS011;68091;52.130;5.570;2023-02-28T03:42:10;8.98;;;4.18;;
78549;SDS011;68091;52.130;5.570;2023-02-28T03:47:17;10.02;;;4.35;;
78549;SDS011;68091;52.130;5.570;2023-02-28T03:52:37;7.30;;;5.18;;
78549;SDS011;68091;52.130;5.570;2023-02-28T03:55:08;7.70;;;4.25;;
78549;SDS011;68091;52.130;5.570;2023-02-28T03:57:47;7.38;;;4.70;;
78549;SDS011;68091;52.130;5.570;2023-02-28T04:00:39;8.98;;;5.05;;
78549;SDS011;68091;52.130;5.570;2023-02-28T04:03:08;11.98;;;5.05;;
78549;SDS011;68091;52.130;5.570;2023-02-28T04:05:43;10.68;;;5.20;;
78549;SDS011;68091;52.130;5.570;2023-02-28T04:08:16;8.10;;;4.70;;
78549;SDS011;68091;52.130;5.570;2023-02-28T04:10:42;11.63;;;4.57;;
78549;SDS011;68091;52.130;5.570;2023-02-28T04:13:13;9.45;;;4.38;;
78549;SDS011;68091;52.130;5.570;2023-02-28T04:15:39;10.48;;;4.72;;
78549;SDS011;68091;52.130;5.570;2023-02-28T04:18:04;12.40;;;4.53;;
78549;SDS011;68091;52.130;5.570;2023-02-28T04:20:31;7.55;;;4.30;;
78549;SDS011;68091;52.130;5.570;2023-02-28T04:22:57;9.95;;;4.22;;
78549;SDS011;68091;52.130;5.570;2023-02-28T04:25:22;7.60;;;3.60;;
78549;SDS011;68091;52.130;5.570;2023-02-28T04:27:48;9.75;;;4.78;;
78549;SDS011;68091;52.130;5.570;2023-02-28T04:30:14;5.10;;;3.95;;
78549;SDS011;68091;52.130;5.570;2023-02-28T04:32:40;6.65;;;4.55;;
78549;SDS011;68091;52.130;5.570;2023-02-28T04:35:06;8.27;;;4.75;;
78549;SDS011;68091;52.130;5.570;2023-02-28T04:37:32;7.60;;;4.22;;
78549;SDS011;68091;52.130;5.570;2023-02-28T04:40:00;7.10;;;4.18;;
78549;SDS011;68091;52.130;5.570;2023-02-28T04:42:26;8.93;;;4.47;;
78549;SDS011;68091;52.130;5.570;2023-02-28T04:44:52;8.10;;;4.20;;
78549;SDS011;68091;52.130;5.570;2023-02-28T04:47:17;6.53;;;3.85;;
78549;SDS011;68091;52.130;5.570;2023-02-28T04:49:43;7.07;;;3.78;;
78549;SDS011;68091;52.130;5.570;2023-02-28T04:52:09;8.23;;;3.40;;
78549;SDS011;68091;52.130;5.570;2023-02-28T04:54:35;8.30;;;3.92;;
78549;SDS011;68091;52.130;5.570;2023-02-28T04:57:03;5.47;;;4.20;;
78549;SDS011;68091;52.130;5.570;2023-02-28T04:59:29;9.63;;;3.88;;
78549;SDS011;68091;52.130;5.570;2023-02-28T05:01:55;11.27;;;3.78;;
78549;SDS011;68091;52.130;5.570;2023-02-28T05:04:21;6.13;;;3.63;;
78549;SDS011;68091;52.130;5.570;2023-02-28T05:06:46;5.40;;;3.55;;
78549;SDS011;68091;52.130;5.570;2023-02-28T05:09:12;6.57;;;3.83;;
78549;SDS011;68091;52.130;5.570;2023-02-28T05:11:44;6.20;;;3.70;;
78549;SDS011;68091;52.130;5.570;2023-02-28T05:14:11;6.88;;;3.67;;
78549;SDS011;68091;52.130;5.570;2023-02-28T05:16:38;8.63;;;3.63;;
78549;SDS011;68091;52.130;5.570;2023-02-28T05:19:04;8.48;;;3.38;;
78549;SDS011;68091;52.130;5.570;2023-02-28T05:21:34;5.95;;;3.20;;
78549;SDS011;68091;52.130;5.570;2023-02-28T05:24:03;7.70;;;4.40;;
78549;SDS011;68091;52.130;5.570;2023-02-28T05:26:38;8.07;;;3.72;;
78549;SDS011;68091;52.130;5.570;2023-02-28T05:29:05;5.90;;;3.53;;
78549;SDS011;68091;52.130;5.570;2023-02-28T05:31:31;5.90;;;3.30;;
78549;SDS011;68091;52.130;5.570;2023-02-28T05:33:58;6.55;;;3.90;;
78549;SDS011;68091;52.130;5.570;2023-02-28T05:36:24;4.35;;;3.00;;
78549;SDS011;68091;52.130;5.570;2023-02-28T05:38:50;8.77;;;3.95;;
78549;SDS011;68091;52.130;5.570;2023-02-28T05:41:17;7.57;;;4.30;;
78549;SDS011;68091;52.130;5.570;2023-02-28T05:43:44;6.75;;;3.85;;
78549;SDS011;68091;52.130;5.570;2023-02-28T05:46:11;8.07;;;3.60;;
78549;SDS011;68091;52.130;5.570;2023-02-28T05:48:38;4.55;;;3.22;;
78549;SDS011;68091;52.130;5.570;2023-02-28T05:51:06;7.85;;;4.30;;
78549;SDS011;68091;52.130;5.570;2023-02-28T05:53:32;6.93;;;4.20;;
78549;SDS011;68091;52.130;5.570;2023-02-28T05:55:59;6.50;;;3.70;;
78549;SDS011;68091;52.130;5.570;2023-02-28T05:58:24;6.20;;;3.60;;
78549;SDS011;68091;52.130;5.570;2023-02-28T06:00:54;12.00;;;4.57;;
78549;SDS011;68091;52.130;5.570;2023-02-28T06:03:20;8.45;;;4.07;;
78549;SDS011;68091;52.130;5.570;2023-02-28T06:05:46;9.13;;;4.28;;
78549;SDS011;68091;52.130;5.570;2023-02-28T06:08:12;6.43;;;3.80;;
78549;SDS011;68091;52.130;5.570;2023-02-28T06:10:38;7.53;;;4.20;;
78549;SDS011;68091;52.130;5.570;2023-02-28T06:13:04;6.63;;;4.32;;
78549;SDS011;68091;52.130;5.570;2023-02-28T06:15:30;9.20;;;4.20;;
78549;SDS011;68091;52.130;5.570;2023-02-28T06:17:56;6.10;;;4.53;;
78549;SDS011;68091;52.130;5.570;2023-02-28T06:20:23;7.80;;;4.00;;
78549;SDS011;68091;52.130;5.570;2023-02-28T06:22:54;5.68;;;3.78;;
78549;SDS011;68091;52.130;5.570;2023-02-28T06:25:21;6.93;;;4.00;;
78549;SDS011;68091;52.130;5.570;2023-02-28T06:27:47;7.53;;;3.80;;
78549;SDS011;68091;52.130;5.570;2023-02-28T06:30:14;4.90;;;3.63;;
78549;SDS011;68091;52.130;5.570;2023-02-28T06:32:40;6.13;;;4.07;;
78549;SDS011;68091;52.130;5.570;2023-02-28T06:35:05;8.02;;;3.85;;
78549;SDS011;68091;52.130;5.570;2023-02-28T06:37:32;6.60;;;3.72;;
78549;SDS011;68091;52.130;5.570;2023-02-28T06:40:03;4.82;;;3.50;;
78549;SDS011;68091;52.130;5.570;2023-02-28T06:42:31;13.30;;;4.25;;
78549;SDS011;68091;52.130;5.570;2023-02-28T06:44:57;4.95;;;3.60;;
78549;SDS011;68091;52.130;5.570;2023-02-28T06:47:23;9.65;;;4.07;;
78549;SDS011;68091;52.130;5.570;2023-02-28T06:49:50;8.52;;;4.40;;
78549;SDS011;68091;52.130;5.570;2023-02-28T06:52:16;7.68;;;4.47;;
78549;SDS011;68091;52.130;5.570;2023-02-28T06:54:41;6.72;;;4.22;;
78549;SDS011;68091;52.130;5.570;2023-02-28T06:57:07;7.70;;;4.68;;
78549;SDS011;68091;52.130;5.570;2023-02-28T06:59:33;8.73;;;4.60;;
78549;SDS011;68091;52.130;5.570;2023-02-28T07:02:00;7.38;;;4.07;;
78549;SDS011;68091;52.130;5.570;2023-02-28T07:04:27;5.95;;;3.92;;
78549;SDS011;68091;52.130;5.570;2023-02-28T07:06:53;8.93;;;4.68;;
78549;SDS011;68091;52.130;5.570;2023-02-28T07:09:21;6.55;;;4.53;;
78549;SDS011;68091;52.130;5.570;2023-02-28T07:11:47;7.28;;;5.13;;
78549;SDS011;68091;52.130;5.570;2023-02-28T07:14:14;7.57;;;4.75;;
78549;SDS011;68091;52.130;5.570;2023-02-28T07:16:39;6.88;;;4.22;;
78549;SDS011;68091;52.130;5.570;2023-02-28T07:19:05;7.93;;;4.90;;
78549;SDS011;68091;52.130;5.570;2023-02-28T07:21:31;10.68;;;5.10;;
78549;SDS011;68091;52.130;5.570;2023-02-28T07:23:57;9.68;;;5.07;;
78549;SDS011;68091;52.130;5.570;2023-02-28T07:26:23;8.50;;;4.72;;
78549;SDS011;68091;52.130;5.570;2023-02-28T07:28:49;8.20;;;5.20;;
78549;SDS011;68091;52.130;5.570;2023-02-28T07:31:15;9.52;;;6.20;;
78549;SDS011;68091;52.130;5.570;2023-02-28T07:33:42;18.33;;;6.10;;
78549;SDS011;68091;52.130;5.570;2023-02-28T07:36:13;10.07;;;5.70;;
78549;SDS011;68091;52.130;5.570;2023-02-28T07:38:42;10.07;;;5.90;;
78549;SDS011;68091;52.130;5.570;2023-02-28T07:41:09;9.30;;;4.95;;
78549;SDS011;68091;52.130;5.570;2023-02-28T07:43:35;9.85;;;5.13;;
78549;SDS011;68091;52.130;5.570;2023-02-28T07:46:05;10.88;;;5.32;;
78549;SDS011;68091;52.130;5.570;2023-02-28T07:48:33;10.85;;;6.20;;
78549;SDS011;68091;52.130;5.570;2023-02-28T07:50:59;14.32;;;7.70;;
78549;SDS011;68091;52.130;5.570;2023-02-28T07:53:25;17.58;;;8.80;;
78549;SDS011;68091;52.130;5.570;2023-02-28T07:55:58;11.75;;;7.10;;
78549;SDS011;68091;52.130;5.570;2023-02-28T07:58:28;11.88;;;7.10;;
78549;SDS011;68091;52.130;5.570;2023-02-28T08:00:55;11.07;;;5.35;;
78549;SDS011;68091;52.130;5.570;2023-02-28T08:03:21;7.28;;;4.03;;
78549;SDS011;68091;52.130;5.570;2023-02-28T08:05:48;9.10;;;4.00;;
78549;SDS011;68091;52.130;5.570;2023-02-28T08:08:17;7.60;;;4.20;;
78549;SDS011;68091;52.130;5.570;2023-02-28T08:10:46;9.80;;;4.32;;
78549;SDS011;68091;52.130;5.570;2023-02-28T08:13:11;5.45;;;4.00;;
78549;SDS011;68091;52.130;5.570;2023-02-28T08:15:41;8.10;;;4.10;;
78549;SDS011;68091;52.130;5.570;2023-02-28T08:18:13;8.52;;;3.80;;
78549;SDS011;68091;52.130;5.570;2023-02-28T08:20:42;9.30;;;3.72;;
78549;SDS011;68091;52.130;5.570;2023-02-28T08:23:08;7.50;;;4.15;;
78549;SDS011;68091;52.130;5.570;2023-02-28T08:25:36;6.65;;;3.90;;
78549;SDS011;68091;52.130;5.570;2023-02-28T08:28:02;9.57;;;3.63;;
78549;SDS011;68091;52.130;5.570;2023-02-28T08:30:28;5.60;;;3.50;;
78549;SDS011;68091;52.130;5.570;2023-02-28T08:32:54;11.57;;;3.65;;
78549;SDS011;68091;52.130;5.570;2023-02-28T08:35:20;5.35;;;3.00;;
78549;SDS011;68091;52.130;5.570;2023-02-28T08:37:50;6.15;;;3.55;;
78549;SDS011;68091;52.130;5.570;2023-02-28T08:40:16;7.72;;;3.20;;
78549;SDS011;68091;52.130;5.570;2023-02-28T08:42:45;6.22;;;3.10;;
78549;SDS011;68091;52.130;5.570;2023-02-28T08:45:11;4.15;;;3.03;;
78549;SDS011;68091;52.130;5.570;2023-02-28T08:47:39;4.85;;;2.90;;
78549;SDS011;68091;52.130;5.570;2023-02-28T08:50:05;5.18;;;2.80;;
78549;SDS011;68091;52.130;5.570;2023-02-28T08:52:32;4.43;;;2.70;;
78549;SDS011;68091;52.130;5.570;2023-02-28T08:54:58;4.05;;;2.35;;
78549;SDS011;68091;52.130;5.570;2023-02-28T08:57:23;2.53;;;2.00;;
78549;SDS011;68091;52.130;5.570;2023-02-28T08:59:57;3.10;;;2.25;;
78549;SDS011;68091;52.130;5.570;2023-02-28T09:02:23;4.93;;;1.90;;
78549;SDS011;68091;52.130;5.570;2023-02-28T09:04:48;3.80;;;2.17;;
78549;SDS011;68091;52.130;5.570;2023-02-28T09:07:14;3.90;;;1.58;;
78549;SDS011;68091;52.130;5.570;2023-02-28T09:09:43;1.88;;;1.30;;
78549;SDS011;68091;52.130;5.570;2023-02-28T09:12:23;1.95;;;1.60;;
78549;SDS011;68091;52.130;5.570;2023-02-28T09:14:50;2.88;;;1.50;;
78549;SDS011;68091;52.130;5.570;2023-02-28T09:17:16;3.22;;;1.60;;
78549;SDS011;68091;52.130;5.570;2023-02-28T09:19:42;4.63;;;1.48;;
78549;SDS011;68091;52.130;5.570;2023-02-28T09:22:20;2.85;;;1.60;;
78549;SDS011;68091;52.130;5.570;2023-02-28T09:24:46;1.52;;;1.17;;
78549;SDS011;68091;52.130;5.570;2023-02-28T09:27:12;2.58;;;1.80;;
78549;SDS011;68091;52.130;5.570;2023-02-28T09:29:47;2.30;;;1.60;;
78549;SDS011;68091;52.130;5.570;2023-02-28T09:32:13;3.42;;;1.40;;
78549;SDS011;68091;52.130;5.570;2023-02-28T09:34:43;2.58;;;1.75;;
78549;SDS011;68091;52.130;5.570;2023-02-28T09:37:08;3.92;;;1.52;;
78549;SDS011;68091;52.130;5.570;2023-02-28T09:39:37;2.28;;;1.63;;
78549;SDS011;68091;52.130;5.570;2023-02-28T09:42:03;3.03;;;2.25;;
78549;SDS011;68091;52.130;5.570;2023-02-28T09:47:31;3.47;;;2.00;;
78549;SDS011;68091;52.130;5.570;2023-02-28T09:50:03;2.38;;;1.80;;
78549;SDS011;68091;52.130;5.570;2023-02-28T09:52:38;2.22;;;1.60;;
78549;SDS011;68091;52.130;5.570;2023-02-28T09:58:01;1.65;;;1.33;;
78549;SDS011;68091;52.130;5.570;2023-02-28T10:00:30;1.60;;;1.50;;
78549;SDS011;68091;52.130;5.570;2023-02-28T10:05:26;4.65;;;2.72;;
78549;SDS011;68091;52.130;5.570;2023-02-28T10:10:44;4.90;;;1.95;;
78549;SDS011;68091;52.130;5.570;2023-02-28T10:16:05;4.25;;;2.10;;
78549;SDS011;68091;52.130;5.570;2023-02-28T10:21:41;2.63;;;2.08;;
78549;SDS011;68091;52.130;5.570;2023-02-28T10:24:19;2.05;;;1.83;;
78549;SDS011;68091;52.130;5.570;2023-02-28T10:27:06;2.72;;;1.52;;
78549;SDS011;68091;52.130;5.570;2023-02-28T10:29:44;4.00;;;2.03;;
78549;SDS011;68091;52.130;5.570;2023-02-28T10:32:18;4.05;;;1.70;;
78549;SDS011;68091;52.130;5.570;2023-02-28T10:37:43;2.05;;;1.67;;
78549;SDS011;68091;52.130;5.570;2023-02-28T10:40:32;2.15;;;1.50;;
78549;SDS011;68091;52.130;5.570;2023-02-28T10:43:04;2.33;;;1.48;;
78549;SDS011;68091;52.130;5.570;2023-02-28T10:49:43;3.00;;;1.77;;
78549;SDS011;68091;52.130;5.570;2023-02-28T10:51:41;1.67;;;1.33;;
78549;SDS011;68091;52.130;5.570;2023-02-28T10:54:18;2.60;;;1.80;;
78549;SDS011;68091;52.130;5.570;2023-02-28T10:57:04;2.38;;;1.75;;
78549;SDS011;68091;52.130;5.570;2023-02-28T10:59:43;2.97;;;1.60;;
78549;SDS011;68091;52.130;5.570;2023-02-28T11:04:56;2.10;;;1.30;;
78549;SDS011;68091;52.130;5.570;2023-02-28T11:07:22;2.75;;;1.80;;
78549;SDS011;68091;52.130;5.570;2023-02-28T11:09:51;1.95;;;1.70;;
78549;SDS011;68091;52.130;5.570;2023-02-28T11:12:36;5.60;;;1.77;;
78549;SDS011;68091;52.130;5.570;2023-02-28T11:15:14;2.92;;;1.77;;
78549;SDS011;68091;52.130;5.570;2023-02-28T11:17:44;3.10;;;1.55;;
78549;SDS011;68091;52.130;5.570;2023-02-28T11:20:20;2.88;;;1.80;;
78549;SDS011;68091;52.130;5.570;2023-02-28T11:22:48;3.38;;;1.60;;
78549;SDS011;68091;52.130;5.570;2023-02-28T11:25:26;2.47;;;1.60;;
78549;SDS011;68091;52.130;5.570;2023-02-28T11:27:58;1.73;;;1.52;;
78549;SDS011;68091;52.130;5.570;2023-02-28T11:35:48;2.42;;;1.88;;
78549;SDS011;68091;52.130;5.570;2023-02-28T11:38:18;3.28;;;1.73;;
78549;SDS011;68091;52.130;5.570;2023-02-28T11:43:53;4.72;;;2.00;;
78549;SDS011;68091;52.130;5.570;2023-02-28T12:03:09;3.03;;;1.73;;
78549;SDS011;68091;52.130;5.570;2023-02-28T12:05:45;3.78;;;2.15;;
78549;SDS011;68091;52.130;5.570;2023-02-28T12:08:32;3.65;;;2.10;;
78549;SDS011;68091;52.130;5.570;2023-02-28T12:11:29;6.82;;;3.20;;
78549;SDS011;68091;52.130;5.570;2023-02-28T12:17:03;2.83;;;1.80;;
78549;SDS011;68091;52.130;5.570;2023-02-28T12:28:14;4.30;;;1.92;;
78549;SDS011;68091;52.130;5.570;2023-02-28T12:30:46;2.40;;;1.52;;
78549;SDS011;68091;52.130;5.570;2023-02-28T12:33:28;3.33;;;1.90;;
78549;SDS011;68091;52.130;5.570;2023-02-28T12:36:14;2.80;;;1.55;;
78549;SDS011;68091;52.130;5.570;2023-02-28T12:41:17;5.68;;;2.25;;
78549;SDS011;68091;52.130;5.570;2023-02-28T12:43:47;3.03;;;1.75;;
78549;SDS011;68091;52.130;5.570;2023-02-28T12:46:25;3.15;;;2.08;;
78549;SDS011;68091;52.130;5.570;2023-02-28T12:48:57;2.55;;;2.08;;
78549;SDS011;68091;52.130;5.570;2023-02-28T12:51:27;2.55;;;1.95;;
78549;SDS011;68091;52.130;5.570;2023-02-28T13:07:29;4.90;;;2.38;;
78549;SDS011;68091;52.130;5.570;2023-02-28T13:10:17;5.30;;;2.40;;
78549;SDS011;68091;52.130;5.570;2023-02-28T13:12:52;1.80;;;1.50;;
78549;SDS011;68091;52.130;5.570;2023-02-28T13:15:24;2.63;;;1.77;;
78549;SDS011;68091;52.130;5.570;2023-02-28T13:17:54;2.60;;;1.70;;
78549;SDS011;68091;52.130;5.570;2023-02-28T13:20:29;2.15;;;1.80;;
78549;SDS011;68091;52.130;5.570;2023-02-28T13:23:00;2.38;;;1.90;;
78549;SDS011;68091;52.130;5.570;2023-02-28T13:27:59;3.80;;;2.00;;
78549;SDS011;68091;52.130;5.570;2023-02-28T13:38:47;2.65;;;1.80;;
78549;SDS011;68091;52.130;5.570;2023-02-28T13:44:07;2.25;;;1.90;;
78549;SDS011;68091;52.130;5.570;2023-02-28T13:46:36;2.47;;;1.88;;
78549;SDS011;68091;52.130;5.570;2023-02-28T13:51:54;2.75;;;1.88;;
78549;SDS011;68091;52.130;5.570;2023-02-28T14:02:33;1.83;;;1.50;;
78549;SDS011;68091;52.130;5.570;2023-02-28T14:05:17;4.93;;;1.75;;
78549;SDS011;68091;52.130;5.570;2023-02-28T14:07:47;2.92;;;1.77;;
78549;SDS011;68091;52.130;5.570;2023-02-28T14:12:58;3.60;;;2.05;;
78549;SDS011;68091;52.130;5.570;2023-02-28T14:17:59;2.22;;;1.65;;
78549;SDS011;68091;52.130;5.570;2023-02-28T14:20:29;5.88;;;2.20;;
78549;SDS011;68091;52.130;5.570;2023-02-28T14:31:47;3.95;;;1.70;;
78549;SDS011;68091;52.130;5.570;2023-02-28T14:34:35;3.70;;;2.05;;
78549;SDS011;68091;52.130;5.570;2023-02-28T14:37:03;2.38;;;1.80;;
78549;SDS011;68091;52.130;5.570;2023-02-28T14:39:34;4.78;;;2.00;;
78549;SDS011;68091;52.130;5.570;2023-02-28T14:42:02;4.47;;;2.05;;
78549;SDS011;68091;52.130;5.570;2023-02-28T14:44:32;2.88;;;1.73;;
78549;SDS011;68091;52.130;5.570;2023-02-28T14:47:01;2.00;;;1.65;;
78549;SDS011;68091;52.130;5.570;2023-02-28T14:49:51;4.32;;;1.98;;
78549;SDS011;68091;52.130;5.570;2023-02-28T14:52:20;2.55;;;1.85;;
78549;SDS011;68091;52.130;5.570;2023-02-28T14:54:46;2.92;;;1.90;;
78549;SDS011;68091;52.130;5.570;2023-02-28T14:57:30;6.03;;;2.17;;
78549;SDS011;68091;52.130;5.570;2023-02-28T15:00:01;4.07;;;1.88;;
78549;SDS011;68091;52.130;5.570;2023-02-28T15:02:38;3.20;;;2.10;;
78549;SDS011;68091;52.130;5.570;2023-02-28T15:07:41;3.45;;;2.03;;
78549;SDS011;68091;52.130;5.570;2023-02-28T15:12:53;3.70;;;2.00;;
78549;SDS011;68091;52.130;5.570;2023-02-28T15:15:45;3.85;;;2.40;;
78549;SDS011;68091;52.130;5.570;2023-02-28T15:19:00;2.67;;;2.08;;
78549;SDS011;68091;52.130;5.570;2023-02-28T15:21:24;4.32;;;2.42;;
78549;SDS011;68091;52.130;5.570;2023-02-28T15:26:21;3.00;;;1.90;;
78549;SDS011;68091;52.130;5.570;2023-02-28T15:28:55;3.05;;;2.33;;
78549;SDS011;68091;52.130;5.570;2023-02-28T15:31:40;5.57;;;2.00;;
78549;SDS011;68091;52.130;5.570;2023-02-28T15:34:21;4.25;;;1.77;;
78549;SDS011;68091;52.130;5.570;2023-02-28T15:36:51;7.35;;;3.03;;
78549;SDS011;68091;52.130;5.570;2023-02-28T15:39:24;3.13;;;2.38;;
78549;SDS011;68091;52.130;5.570;2023-02-28T15:42:12;2.20;;;1.50;;
78549;SDS011;68091;52.130;5.570;2023-02-28T15:44:44;4.57;;;1.88;;
78549;SDS011;68091;52.130;5.570;2023-02-28T15:47:17;2.28;;;1.83;;
78549;SDS011;68091;52.130;5.570;2023-02-28T15:49:47;5.00;;;1.90;;
78549;SDS011;68091;52.130;5.570;2023-02-28T15:52:22;5.10;;;2.25;;
78549;SDS011;68091;52.130;5.570;2023-02-28T15:57:57;4.93;;;1.92;;
78549;SDS011;68091;52.130;5.570;2023-02-28T16:00:27;4.65;;;1.83;;
78549;SDS011;68091;52.130;5.570;2023-02-28T16:02:54;4.20;;;2.00;;
78549;SDS011;68091;52.130;5.570;2023-02-28T16:05:24;3.70;;;2.15;;
78549;SDS011;68091;52.130;5.570;2023-02-28T16:07:59;3.60;;;2.70;;
78549;SDS011;68091;52.130;5.570;2023-02-28T16:10:40;4.32;;;2.33;;
78549;SDS011;68091;52.130;5.570;2023-02-28T16:13:06;2.97;;;2.40;;
78549;SDS011;68091;52.130;5.570;2023-02-28T16:15:37;5.63;;;2.22;;
78549;SDS011;68091;52.130;5.570;2023-02-28T16:18:07;5.97;;;2.85;;
78549;SDS011;68091;52.130;5.570;2023-02-28T16:20:37;3.17;;;2.20;;
78549;SDS011;68091;52.130;5.570;2023-02-28T16:23:03;3.75;;;2.00;;
78549;SDS011;68091;52.130;5.570;2023-02-28T16:25:33;4.30;;;2.47;;
78549;SDS011;68091;52.130;5.570;2023-02-28T16:27:59;2.28;;;2.00;;
78549;SDS011;68091;52.130;5.570;2023-02-28T16:30:27;2.42;;;2.05;;
78549;SDS011;68091;52.130;5.570;2023-02-28T16:32:57;4.10;;;2.20;;
78549;SDS011;68091;52.130;5.570;2023-02-28T16:35:24;3.60;;;2.55;;
78549;SDS011;68091;52.130;5.570;2023-02-28T16:37:50;4.90;;;2.65;;
78549;SDS011;68091;52.130;5.570;2023-02-28T16:40:18;4.85;;;1.90;;
78549;SDS011;68091;52.130;5.570;2023-02-28T16:42:48;4.75;;;3.03;;
78549;SDS011;68091;52.130;5.570;2023-02-28T16:45:44;2.65;;;2.17;;
78549;SDS011;68091;52.130;5.570;2023-02-28T16:48:16;3.22;;;2.33;;
78549;SDS011;68091;52.130;5.570;2023-02-28T16:50:42;7.97;;;2.97;;
78549;SDS011;68091;52.130;5.570;2023-02-28T16:53:11;3.45;;;2.20;;
78549;SDS011;68091;52.130;5.570;2023-02-28T16:55:36;5.75;;;2.30;;
78549;SDS011;68091;52.130;5.570;2023-02-28T16:58:03;3.60;;;2.75;;
78549;SDS011;68091;52.130;5.570;2023-02-28T17:00:29;8.02;;;2.97;;
78549;SDS011;68091;52.130;5.570;2023-02-28T17:02:56;5.35;;;2.88;;
78549;SDS011;68091;52.130;5.570;2023-02-28T17:05:24;3.95;;;3.17;;
78549;SDS011;68091;52.130;5.570;2023-02-28T17:07:55;3.55;;;2.90;;
78549;SDS011;68091;52.130;5.570;2023-02-28T17:10:22;4.57;;;3.20;;
78549;SDS011;68091;52.130;5.570;2023-02-28T17:12:49;7.13;;;2.80;;
78549;SDS011;68091;52.130;5.570;2023-02-28T17:15:16;4.22;;;3.08;;
78549;SDS011;68091;52.130;5.570;2023-02-28T17:17:43;7.35;;;3.10;;
78549;SDS011;68091;52.130;5.570;2023-02-28T17:20:14;12.57;;;3.40;;
78549;SDS011;68091;52.130;5.570;2023-02-28T17:22:42;4.85;;;3.28;;
78549;SDS011;68091;52.130;5.570;2023-02-28T17:25:08;7.47;;;3.10;;
78549;SDS011;68091;52.130;5.570;2023-02-28T17:27:35;5.65;;;3.03;;
78549;SDS011;68091;52.130;5.570;2023-02-28T17:30:03;8.48;;;3.63;;
78549;SDS011;68091;52.130;5.570;2023-02-28T17:32:41;5.78;;;3.40;;
78549;SDS011;68091;52.130;5.570;2023-02-28T17:35:07;5.47;;;3.00;;
78549;SDS011;68091;52.130;5.570;2023-02-28T17:37:36;5.20;;;3.65;;
78549;SDS011;68091;52.130;5.570;2023-02-28T17:40:02;7.82;;;4.15;;
78549;SDS011;68091;52.130;5.570;2023-02-28T17:42:28;11.65;;;4.05;;